VTBSVTUQ

Guest
Details From VTBS - Bangkok Suvarnabhumi Intl
To VTUQ - Nakhon Ratchasima
Flight Number -
Tags generated
Created
Modified
Stats Distance 123 nm / 228 km
Max Altitude 8,500 ft / 2,591 m
Waypoints 3
Social Downloads 7
Likes 0
Share VATSIM

Download

Looking for another format? Having issues loading an existing format? Contact us
Advertisement - Login to hide

Notes

Basic altitude profile: - Ascent Rate: 2500ft/min - Ascent Speed: 250kts - Cruise Altitude: 35000ft - Cruise Speed: 420kts - Descent Rate: 1500ft/min - Descent Speed: 250kts Options: - Use NATs: yes - Use PACOTS: yes - Use low airways: yes - Use high airways: yes

Route

VTBS SELKA VTUQ

ID Type Via Altitude Latitude Longitude Leg Dist Tot Dist Heading (true) Name
O VTBS APT - 0 ft / 0 m 13.68046˚ 100.74751˚ - 0 nm - Bangkok Suvarnabhumi Intl
SELKA FIX - 8,500 ft / 2,591 m 14.35997˚ 101.99653˚ 83 nm 83 nm 61° / 61° -
O VTUQ APT - 0 ft / 0 m 14.94950˚ 102.31274˚ 39 nm 123 nm 27° / 27° Nakhon Ratchasima

Altitude Profile

Advertisement - Login to hide

VTBS

Details ICAO VTBS (BKK)
Name Bangkok Suvarnabhumi Intl
Region Thailand
Timezone Asia/Bangkok (UTC+7.0)
Stats Elevation 5 ft / 2 m (AMSL)
Location 13.680456° 100.747512°
Runways 2
Magnetic Variation 0.571° W

METAR

VTBS 161900Z 06011KT 020V100 CAVOK 27/15 Q1015 NOSIG

Decode

TAF

TAF VTBS 161700Z 1618/1724 02005KT 9999 FEW040 BECMG 1702/1704 08010KT FEW030 BECMG 1714/1716 35005KT FEW040

Decode

Departure Runways

ID Width Length Bearing (true) Bearing (mag) Surface Threshold Offset Overrun Length
01L 200 ft / 61 m 12,194 ft / 3,717 m 14.26° 14.83° Asphalt 0 ft / 0 m 400 ft / 122 m
01R 200 ft / 61 m 13,181 ft / 4,018 m 14.19° 14.76° Asphalt 0 ft / 0 m 400 ft / 122 m
19L 200 ft / 61 m 13,181 ft / 4,018 m 194.19° 194.76° Asphalt 0 ft / 0 m 400 ft / 122 m
19R 200 ft / 61 m 12,194 ft / 3,717 m 194.26° 194.83° Asphalt 0 ft / 0 m 400 ft / 122 m

VTUQ

Details ICAO VTUQ (NAK)
Name Nakhon Ratchasima
Region Thailand
Timezone Asia/Bangkok (UTC+7.0)
Stats Elevation 765 ft / 233 m (AMSL)
Location 14.949496° 102.312737°
Runways 1
Magnetic Variation 0.681° W

METAR

VTUQ 161900Z AUTO 05011KT ////NDV ////// 20/14 Q1018 A3007

Decode

TAF

TAF VTUQ 161700Z 1618/1718 06015KT 8000 FEW030 BECMG 1701/1703 9999 FEW025

Decode

Destination Runways

ID Width Length Bearing (true) Bearing (mag) Surface Threshold Offset Overrun Length
06 148 ft / 45 m 6,896 ft / 2,102 m 61.18° 61.86° Asphalt 0 ft / 0 m 197 ft / 60 m
24 148 ft / 45 m 6,896 ft / 2,102 m 241.19° 241.87° Asphalt 0 ft / 0 m 197 ft / 60 m

Approach Navaids

Runway Type Ident Frequency Range Bearing (true) Bearing (mag) Slope Elevation
06 Localiser INKR 109.70 MHz 18 nm / 33 km 61.19° 61.87° - 732 ft / 223 m (AMSL)
06 Glidescope INKR 109.70 MHz 10 nm / 19 km 61.19° 61.87° 3.00° 765 ft / 233 m (AMSL)
06 DME INKR 109.70 MHz 18 nm / 33 km - - - 732 ft / 223 m (AMSL)

Popular Alternatives